Brazoria, TX (77422)

1:39 PM CST on December 26, 2014 (GMT -0600)
Sugar Mill West | Change Station
CLOSE
Current Station
Personal Weather Station
Location: Lake Jackson, TX
Elevation: 23 ft
Nearby Weather Stations

Elev 23 ft 29.06 °N, 95.51 °W | Updated 5 seconds ago

Overcast
Overcast
70.0 °F
Feels Like 70.0 °F
N
0.0
Wind Variable Wind from WNW
Gusts 7.2 mph

Today
High -- | Low -- °F
--% Chance of Precip.
Yesterday
High -- | Low -- °F
Precip. -- in
7:14 AM 5:31 PM
Waxing Crescent, 28% visible
Pressure 29.96 in
Visibility 10.0 miles
Clouds Mostly Cloudy 3100 ft
Overcast 4700 ft
Dew Point 62 °F
Humidity 75%
Rainfall 0.00 in
Snow Depth Not available.
UV 1 out of 12
Pollen 6.50 out of 12
Air Quality Not available.
Flu Activity Not available.
METAR KLBX 261853Z AUTO 16017KT 10SM BKN031 OVC047 21/18 A2996 RMK AO2 SLP146 T02060178

More Conditions Fewer Conditions

Pressure 29.96 in
Visibility 10.0 miles
Clouds Mostly Cloudy 3100 ft
Overcast 4700 ft
Dew Point 62 °F
Humidity 75%
Rainfall 0.00 in
Snow Depth Not available.
UV 1 out of 12
Pollen 6.50 out of 12
Air Quality Not available.
Flu Activity Not available.
METAR KLBX 261853Z AUTO 16017KT 10SM BKN031 OVC047 21/18 A2996 RMK AO2 SLP146 T02060178

More Conditions Fewer Conditions

10-Day Weather Forecast

Almanac

Astronomy

Dec. 26, 2014 Rise Set
Actual Time
Civil Twilight
Nautical Twilight
Astronomical Twilight
Moon
Length of Visible Light
Length of Day
Tomorrow will be .
, % of the Moon is Illuminated

Today's Extremes

State Highs State Lows

Community

WunderPhotos

Upload Photos

1,780,675 photos uploaded!

WunderBlogs® & News

Nearby

Air Quality

  Air Quality AQ Index Pollutant
Not available.

Snow Depth

Station Depth Elevation

Earthquake Activity

City Distance Mag. Time & Date
Minimum magnitude displayed is 2.5.

Coastal Water Temperatures

Place Temperature

Nearby Weather Stations